Time;durP1;ratioP1;P1;durP2;ratioP2;P2;SDS_P1;SDS_P2;PMS_P1;PMS_P2;Temp;Humidity;BMP_temperature;BMP_pressure;BME280_temperature;BME280_humidity;BME280_pressure;Samples;Min_cycle;Max_cycle;Signal;HPM_P1;HPM_P2
2023/12/30 00:00:40;;;;;;;2.40;0.65;;;10.90;68.10;12.20;100671.00;;;;5035973;28;20958;-73
2023/12/30 00:03:08;;;;;;;4.85;0.70;;;10.90;68.10;12.10;100672.00;;;;5041415;28;20197;-75
2023/12/30 00:05:35;;;;;;;2.78;0.55;;;10.90;68.00;12.10;100672.00;;;;5049156;28;20687;-74
2023/12/30 00:08:02;;;;;;;3.53;0.60;;;10.90;67.90;12.10;100678.00;;;;5038718;28;20200;-75
2023/12/30 00:10:30;;;;;;;4.32;0.90;;;10.80;67.80;12.00;100673.00;;;;5030786;28;20208;-74
2023/12/30 00:12:57;;;;;;;2.35;0.70;;;10.80;67.80;12.00;100682.00;;;;5037467;28;20244;-75
2023/12/30 00:15:24;;;;;;;4.57;0.73;;;10.80;67.70;12.00;100676.00;;;;5038834;28;20196;-74
2023/12/30 00:17:51;;;;;;;3.80;0.63;;;10.80;67.70;11.90;100678.00;;;;5030470;28;20203;-74
2023/12/30 00:20:20;;;;;;;1.45;0.30;;;10.80;67.70;11.90;100679.00;;;;5030846;28;20270;-75
2023/12/30 00:22:47;;;;;;;5.57;0.70;;;10.80;67.60;11.90;100695.00;;;;5031260;28;20202;-74
2023/12/30 00:25:16;;;;;;;1.30;0.50;;;10.70;67.50;11.90;100694.00;;;;5035200;28;20200;-74
2023/12/30 00:27:43;;;;;;;3.33;0.40;;;10.70;67.50;11.90;100700.00;;;;5034159;28;20238;-73
2023/12/30 00:30:13;;;;;;;4.35;0.40;;;10.70;67.50;11.90;100694.00;;;;5031281;28;20753;-74
2023/12/30 00:32:40;;;;;;;1.75;0.52;;;10.70;67.50;11.90;100702.00;;;;5034454;28;20192;-74
2023/12/30 00:35:08;;;;;;;2.15;0.57;;;10.70;67.50;11.90;100699.00;;;;5034598;28;20196;-74
2023/12/30 00:37:37;;;;;;;2.13;0.68;;;10.70;67.50;11.90;100705.00;;;;5020316;28;20211;-74
2023/12/30 00:40:05;;;;;;;2.03;0.60;;;10.60;67.30;11.90;100705.00;;;;5031172;28;20222;-74
2023/12/30 00:42:32;;;;;;;1.80;0.40;;;10.60;67.30;11.80;100703.00;;;;5034712;28;20197;-74
2023/12/30 00:44:59;;;;;;;2.85;0.47;;;10.60;67.20;11.80;100703.00;;;;5034600;28;20196;-74
2023/12/30 00:47:26;;;;;;;1.77;0.30;;;10.60;67.30;11.80;100702.00;;;;5043806;28;20191;-73
2023/12/30 00:49:53;;;;;;;3.70;0.77;;;10.60;67.30;11.80;100707.00;;;;5042292;28;20196;-74
2023/12/30 00:52:20;;;;;;;2.40;0.35;;;10.60;67.30;11.80;100708.00;;;;5034314;28;20200;-74
2023/12/30 00:54:49;;;;;;;3.03;0.45;;;10.60;67.30;11.70;100712.00;;;;5034455;28;20188;-74
2023/12/30 00:57:16;;;;;;;3.97;0.70;;;10.50;67.20;11.70;100712.00;;;;5034316;28;20573;-74
2023/12/30 00:59:43;;;;;;;2.13;0.40;;;10.60;67.30;11.70;100715.00;;;;5034238;28;20224;-74
2023/12/30 01:02:10;;;;;;;1.13;0.50;;;10.50;67.20;11.70;100721.00;;;;5030847;28;20316;-74
2023/12/30 01:04:37;;;;;;;2.30;0.55;;;10.50;67.20;11.70;100724.00;;;;5044938;28;20196;-73
2023/12/30 01:07:04;;;;;;;3.38;0.63;;;10.50;67.10;11.70;100715.00;;;;5054131;28;20223;-73
2023/12/30 01:09:31;;;;;;;1.70;0.30;;;10.50;67.10;11.70;100728.00;;;;5042484;28;20295;-73
2023/12/30 01:12:00;;;;;;;2.05;0.40;;;10.50;67.10;11.60;100735.00;;;;5033778;28;20200;-74
2023/12/30 01:14:27;;;;;;;5.30;0.90;;;10.50;67.10;11.70;100739.00;;;;5033937;28;20712;-74
2023/12/30 01:16:54;;;;;;;5.72;1.08;;;10.40;67.00;11.70;100728.00;;;;5034369;28;20227;-74
2023/12/30 01:19:21;;;;;;;3.70;0.68;;;10.40;67.00;11.60;100731.00;;;;5040944;28;20203;-74
2023/12/30 01:21:48;;;;;;;3.65;0.73;;;10.40;67.00;11.70;100731.00;;;;5042744;28;20215;-74
2023/12/30 01:24:15;;;;;;;1.40;0.60;;;10.40;67.00;11.60;100732.00;;;;5048135;28;20701;-74
2023/12/30 01:26:42;;;;;;;3.13;0.35;;;10.40;67.00;11.60;100736.00;;;;5052518;28;20203;-74
2023/12/30 01:29:11;;;;;;;0.80;0.30;;;10.40;67.00;11.60;100738.00;;;;5035831;28;20196;-74
2023/12/30 01:31:38;;;;;;;1.77;0.50;;;10.40;67.00;11.60;100734.00;;;;5032526;28;20207;-73
2023/12/30 01:34:05;;;;;;;0.85;0.25;;;10.40;67.00;11.60;100741.00;;;;5033542;28;20282;-73
2023/12/30 01:36:32;;;;;;;2.42;0.63;;;10.40;67.00;11.60;100750.00;;;;5033018;28;20196;-74
2023/12/30 01:38:59;;;;;;;3.45;1.27;;;10.40;67.00;11.60;100749.00;;;;5047998;28;20211;-73
2023/12/30 01:41:26;;;;;;;2.40;0.22;;;10.30;66.90;11.60;100748.00;;;;5046483;28;20767;-73
2023/12/30 01:43:53;;;;;;;3.00;0.55;;;10.30;66.90;11.60;100753.00;;;;5033481;28;20205;-74
2023/12/30 01:46:21;;;;;;;2.97;0.70;;;10.30;66.80;11.60;100758.00;;;;5033406;28;20192;-74
2023/12/30 01:48:48;;;;;;;2.40;0.57;;;10.30;66.90;11.50;100747.00;;;;5033278;28;20184;-74
2023/12/30 01:51:15;;;;;;;1.58;0.38;;;10.30;66.80;11.50;100752.00;;;;5033445;28;20212;-73
2023/12/30 01:53:44;;;;;;;2.38;0.30;;;10.30;66.80;11.50;100754.00;;;;5033402;28;20192;-73
2023/12/30 01:56:13;;;;;;;3.33;0.40;;;10.30;66.90;11.50;100759.00;;;;5045934;28;20628;-73
2023/12/30 01:58:40;;;;;;;1.42;0.47;;;10.20;66.80;11.50;100765.00;;;;5033659;28;20687;-73
2023/12/30 02:01:08;;;;;;;1.80;0.55;;;10.20;66.70;11.50;100767.00;;;;5030806;28;20228;-74
2023/12/30 02:03:37;;;;;;;1.77;0.35;;;10.20;66.80;11.40;100773.00;;;;5030534;28;20204;-73
2023/12/30 02:06:04;;;;;;;3.70;1.00;;;10.10;66.70;11.40;100771.00;;;;5031600;28;20236;-74
2023/12/30 02:08:32;;;;;;;3.40;0.47;;;10.10;66.80;11.40;100769.00;;;;5033100;28;20665;-75
2023/12/30 02:10:59;;;;;;;3.08;0.70;;;10.10;66.80;11.40;100786.00;;;;5032371;28;20291;-73
2023/12/30 02:13:26;;;;;;;9.10;0.90;;;10.10;66.90;11.40;100781.00;;;;5031540;28;20227;-73
2023/12/30 02:15:53;;;;;;;2.42;0.45;;;10.10;67.00;11.40;100785.00;;;;5042203;28;20195;-74
2023/12/30 02:18:20;;;;;;;4.00;0.73;;;10.00;67.60;11.30;100785.00;;;;5036790;28;20200;-73
2023/12/30 02:20:48;;;;;;;2.03;0.57;;;10.00;67.00;11.30;100792.00;;;;5051077;28;20219;-73
2023/12/30 02:23:16;;;;;;;6.05;0.88;;;10.00;67.10;11.30;100788.00;;;;5047414;28;20192;-73
2023/12/30 02:25:44;;;;;;;3.88;0.80;;;10.00;67.80;11.30;100787.00;;;;5038818;28;20287;-73
2023/12/30 02:28:11;;;;;;;1.48;0.50;;;10.00;67.10;11.30;100788.00;;;;5035846;28;20195;-74
2023/12/30 02:30:38;;;;;;;3.33;0.52;;;10.00;67.10;11.30;100787.00;;;;5039223;28;20199;-73
2023/12/30 02:33:05;;;;;;;2.70;0.60;;;10.00;67.20;11.30;100790.00;;;;5045566;28;20200;-74
2023/12/30 02:35:33;;;;;;;2.00;0.38;;;10.00;67.30;11.30;100793.00;;;;5043545;28;20223;-73
2023/12/30 02:38:00;;;;;;;3.88;0.70;;;10.00;67.40;11.30;100787.00;;;;5051434;28;20724;-73
2023/12/30 02:40:28;;;;;;;2.35;0.30;;;10.00;67.40;11.30;100789.00;;;;5036466;28;20228;-73
2023/12/30 02:42:55;;;;;;;3.25;0.50;;;10.00;67.50;11.30;100784.00;;;;5050026;28;20201;-73
2023/12/30 02:45:22;;;;;;;2.08;0.60;;;10.00;67.50;11.30;100792.00;;;;5036329;28;20204;-73
2023/12/30 02:47:49;;;;;;;2.17;0.45;;;10.00;67.50;11.30;100797.00;;;;5041301;28;20652;-73
2023/12/30 02:50:17;;;;;;;2.97;0.85;;;10.00;67.50;11.30;100802.00;;;;5036776;28;20290;-73
2023/12/30 02:52:44;;;;;;;5.60;0.75;;;10.00;67.50;11.30;100797.00;;;;5022582;28;20196;-73
2023/12/30 02:55:11;;;;;;;2.47;0.75;;;10.00;67.50;11.30;100798.00;;;;5040676;28;20300;-73
2023/12/30 02:57:39;;;;;;;1.55;0.63;;;10.00;67.50;11.30;100800.00;;;;5048902;28;20235;-74
2023/12/30 03:00:08;;;;;;;1.77;0.60;;;10.00;67.50;11.30;100804.00;;;;5034666;28;20203;-73
2023/12/30 03:02:36;;;;;;;2.13;0.30;;;10.00;67.50;11.30;100806.00;;;;5042183;28;20204;-73
2023/12/30 03:05:03;;;;;;;3.05;0.85;;;10.00;67.50;11.30;100802.00;;;;5041259;28;20202;-72
2023/12/30 03:07:30;;;;;;;1.90;0.52;;;10.00;67.40;11.30;100807.00;;;;5045689;28;20778;-73
2023/12/30 03:09:57;;;;;;;2.42;0.73;;;10.00;67.50;11.40;100806.00;;;;5049149;28;20210;-73
2023/12/30 03:12:24;;;;;;;3.25;0.50;;;10.00;67.50;11.40;100807.00;;;;5049906;28;20693;-72
2023/12/30 03:14:53;;;;;;;4.85;0.70;;;10.00;67.40;11.40;100804.00;;;;5048675;28;20217;-73
2023/12/30 03:17:20;;;;;;;4.63;0.70;;;10.00;67.40;11.40;100810.00;;;;5050872;28;20203;-73
2023/12/30 03:19:47;;;;;;;3.90;0.40;;;10.00;67.40;11.40;100801.00;;;;5037996;28;20199;-73
2023/12/30 03:22:14;;;;;;;2.33;0.60;;;10.10;67.50;11.40;100810.00;;;;5040194;28;20585;-73
2023/12/30 03:24:41;;;;;;;2.00;0.40;;;10.00;67.40;11.40;100813.00;;;;5028798;28;20203;-72
2023/12/30 03:27:08;;;;;;;5.20;0.65;;;10.10;67.50;11.40;100820.00;;;;5031345;28;20196;-73
2023/12/30 03:29:35;;;;;;;3.35;0.57;;;10.10;67.50;11.50;100811.00;;;;5031419;28;20284;-72
2023/12/30 03:32:04;;;;;;;1.88;0.40;;;10.00;67.40;11.50;100820.00;;;;5031256;28;20205;-72
2023/12/30 03:34:31;;;;;;;2.67;0.65;;;10.00;67.40;11.50;100824.00;;;;5030942;28;20239;-73
2023/12/30 03:36:58;;;;;;;1.85;0.45;;;10.10;67.50;11.50;100828.00;;;;5037611;28;20660;-73
2023/12/30 03:39:25;;;;;;;1.70;0.50;;;10.00;67.50;11.50;100828.00;;;;5032924;28;20196;-72
2023/12/30 03:41:52;;;;;;;2.55;0.50;;;10.10;67.60;11.60;100824.00;;;;5031093;28;20249;-72
2023/12/30 03:44:19;;;;;;;2.95;0.40;;;10.10;67.60;11.60;100828.00;;;;5031088;28;20200;-72
2023/12/30 03:46:46;;;;;;;4.13;0.80;;;10.10;67.70;11.60;100833.00;;;;5031624;28;20637;-74
2023/12/30 03:49:14;;;;;;;5.25;0.82;;;10.10;67.70;11.60;100834.00;;;;5031067;28;20200;-73
2023/12/30 03:51:41;;;;;;;4.25;0.80;;;10.10;67.70;11.60;100826.00;;;;5031658;28;20192;-72
2023/12/30 03:54:08;;;;;;;2.72;1.00;;;10.10;68.40;11.60;100816.00;;;;5032189;28;20210;-73
2023/12/30 03:56:40;;;;;;;1.95;0.68;;;10.10;67.70;11.60;100812.00;;;;5031457;28;20244;-72
2023/12/30 03:59:07;;;;;;;1.90;0.50;;;10.10;67.70;11.60;100813.00;;;;5034166;28;20218;-72
2023/12/30 04:01:34;;;;;;;3.70;0.75;;;10.10;67.70;11.60;100830.00;;;;5034975;28;20219;-72
2023/12/30 04:04:01;;;;;;;2.38;0.50;;;10.10;67.80;11.60;100816.00;;;;5034763;28;20250;-73
2023/12/30 04:06:30;;;;;;;4.13;0.80;;;10.10;67.80;11.60;100820.00;;;;5034557;28;20228;-72
2023/12/30 04:08:57;;;;;;;4.03;0.90;;;10.10;67.80;11.60;100823.00;;;;5034855;28;20609;-73
2023/12/30 04:11:24;;;;;;;2.50;0.95;;;10.10;67.80;11.60;100826.00;;;;5045029;28;20209;-73
2023/12/30 04:13:51;;;;;;;4.45;0.90;;;10.10;67.80;11.60;100830.00;;;;5050018;28;20218;-73
2023/12/30 04:16:18;;;;;;;3.28;0.68;;;10.10;67.80;11.60;100827.00;;;;5032618;28;20592;-73
2023/12/30 04:18:45;;;;;;;1.45;0.40;;;10.10;67.80;11.60;100833.00;;;;5034560;28;20196;-73
2023/12/30 04:21:12;;;;;;;2.95;0.55;;;10.10;67.80;11.60;100824.00;;;;5035003;28;20231;-73
2023/12/30 04:23:40;;;;;;;1.42;0.38;;;10.10;67.80;11.60;100828.00;;;;5036102;28;20204;-73
2023/12/30 04:26:08;;;;;;;0.57;0.13;;;10.10;67.90;11.60;100832.00;;;;5033119;28;20211;-73
2023/12/30 04:28:35;;;;;;;3.45;0.85;;;10.10;68.00;11.60;100835.00;;;;5038138;28;20196;-73
2023/12/30 04:31:02;;;;;;;3.15;0.63;;;10.10;68.00;11.60;100831.00;;;;5031369;28;20212;-73
2023/12/30 04:33:29;;;;;;;2.15;0.68;;;10.10;68.10;11.60;100831.00;;;;5034516;28;20662;-72
2023/12/30 04:35:56;;;;;;;3.72;0.70;;;10.00;68.00;11.60;100837.00;;;;5033523;28;20206;-73
2023/12/30 04:38:23;;;;;;;4.00;1.23;;;10.00;68.10;11.60;100843.00;;;;5034618;28;20554;-73
2023/12/30 04:40:51;;;;;;;3.10;0.50;;;10.00;68.10;11.60;100851.00;;;;5044019;28;20196;-73
2023/12/30 04:43:18;;;;;;;4.15;1.30;;;10.00;68.20;11.60;100852.00;;;;5053369;28;20200;-73
2023/12/30 04:45:45;;;;;;;2.65;0.47;;;10.00;68.20;11.60;100844.00;;;;5046241;28;20589;-73
2023/12/30 04:48:12;;;;;;;3.65;1.05;;;10.00;68.20;11.60;100848.00;;;;5042320;28;20314;-74
2023/12/30 04:50:39;;;;;;;4.97;0.93;;;10.00;68.30;11.50;100844.00;;;;5033667;28;20197;-73
2023/12/30 04:53:06;;;;;;;1.88;0.65;;;10.00;68.30;11.60;100832.00;;;;5052598;28;20191;-72
2023/12/30 04:55:33;;;;;;;3.40;0.70;;;10.00;68.70;11.60;100838.00;;;;5033093;28;20203;-73
2023/12/30 04:58:03;;;;;;;3.95;0.63;;;10.00;68.50;11.50;100846.00;;;;5033869;28;20188;-72
2023/12/30 05:00:30;;;;;;;3.00;0.98;;;10.00;68.50;11.60;100844.00;;;;5034556;28;20185;-73
2023/12/30 05:02:57;;;;;;;3.83;0.60;;;10.00;68.50;11.50;100835.00;;;;5044865;28;20322;-72
2023/12/30 05:05:24;;;;;;;2.50;0.88;;;10.00;68.50;11.60;100853.00;;;;5034069;28;20295;-73
2023/12/30 05:07:51;;;;;;;6.57;0.70;;;10.00;68.50;11.60;100848.00;;;;5034009;28;20212;-72
2023/12/30 05:10:19;;;;;;;2.53;0.70;;;10.00;68.50;11.60;100856.00;;;;5034067;28;20200;-73
2023/12/30 05:12:46;;;;;;;2.25;0.63;;;10.00;68.50;11.50;100849.00;;;;5033927;28;20230;-73
2023/12/30 05:15:14;;;;;;;2.17;0.50;;;10.00;68.50;11.50;100851.00;;;;5033728;28;20196;-73
2023/12/30 05:17:41;;;;;;;2.08;0.63;;;10.00;68.60;11.60;100863.00;;;;5034141;28;20213;-73
2023/12/30 05:20:10;;;;;;;4.47;1.02;;;10.00;68.60;11.50;100862.00;;;;5034980;28;20306;-73
2023/12/30 05:22:37;;;;;;;4.78;0.50;;;10.00;68.60;11.50;100866.00;;;;5033984;28;20638;-73
2023/12/30 05:25:05;;;;;;;1.55;0.60;;;10.00;68.60;11.50;100867.00;;;;5033548;28;20196;-73
2023/12/30 05:27:32;;;;;;;3.50;0.90;;;10.00;68.70;11.60;100868.00;;;;5034005;28;20266;-73
2023/12/30 05:29:59;;;;;;;3.03;0.63;;;10.00;68.70;11.50;100876.00;;;;5032467;28;20654;-73
2023/12/30 05:32:28;;;;;;;2.33;0.70;;;10.00;68.70;11.50;100879.00;;;;5033045;28;20728;-73
2023/12/30 05:34:56;;;;;;;3.45;0.80;;;10.00;68.80;11.50;100883.00;;;;5033536;28;20192;-73
2023/12/30 05:37:23;;;;;;;3.03;0.60;;;10.00;68.90;11.50;100878.00;;;;5038527;28;20196;-72
2023/12/30 05:39:50;;;;;;;4.13;1.00;;;10.00;68.80;11.60;100891.00;;;;5033621;28;20192;-73
2023/12/30 05:42:16;;;;;;;2.67;0.80;;;10.00;68.80;11.60;100893.00;;;;5033601;28;20224;-72
2023/12/30 05:44:44;;;;;;;2.45;0.73;;;10.00;68.80;11.60;100892.00;;;;5033551;28;20188;-73
2023/12/30 05:47:11;;;;;;;2.97;0.50;;;10.00;68.90;11.60;100887.00;;;;5033520;28;20350;-72
2023/12/30 05:49:40;;;;;;;2.63;0.68;;;10.00;68.90;11.60;100889.00;;;;5033187;28;20727;-73
2023/12/30 05:52:08;;;;;;;1.88;0.40;;;10.00;68.80;11.60;100901.00;;;;5033177;28;20203;-72
2023/12/30 05:54:35;;;;;;;1.70;0.43;;;10.10;68.90;11.60;100893.00;;;;5033348;28;20262;-72
2023/12/30 05:57:02;;;;;;;2.85;0.85;;;10.10;68.90;11.60;100892.00;;;;5038052;28;20200;-73
2023/12/30 05:59:29;;;;;;;3.97;0.80;;;10.10;68.90;11.60;100899.00;;;;5042745;28;20295;-73
2023/12/30 06:01:58;;;;;;;4.70;0.63;;;10.10;68.80;11.60;100899.00;;;;5050476;28;20222;-72
2023/12/30 06:04:25;;;;;;;7.20;1.02;;;10.10;68.80;11.60;100895.00;;;;5034327;28;20251;-72
2023/12/30 06:06:53;;;;;;;3.15;0.70;;;10.10;69.40;11.60;100905.00;;;;5033937;28;20602;-73
2023/12/30 06:09:21;;;;;;;2.42;0.55;;;10.10;68.70;11.60;100905.00;;;;5029461;28;20211;-72
2023/12/30 06:11:48;;;;;;;5.60;0.88;;;10.10;68.70;11.60;100905.00;;;;5030801;28;20224;-72
2023/12/30 06:14:15;;;;;;;4.22;0.88;;;10.10;68.60;11.60;100903.00;;;;5033097;28;20222;-72
2023/12/30 06:16:42;;;;;;;2.95;0.60;;;10.10;68.60;11.70;100912.00;;;;5028566;28;20287;-72
2023/12/30 06:19:09;;;;;;;1.17;0.30;;;10.10;68.70;11.60;100910.00;;;;5029773;28;20200;-72
2023/12/30 06:21:36;;;;;;;2.15;0.90;;;10.10;68.60;11.70;100915.00;;;;5029685;28;20220;-73
2023/12/30 06:24:06;;;;;;;3.25;0.40;;;10.10;68.60;11.60;100907.00;;;;5031405;28;20286;-73
2023/12/30 06:26:37;;;;;;;8.20;0.60;;;10.10;69.30;11.60;100919.00;;;;5032337;28;20201;-73
2023/12/30 06:29:05;;;;;;;3.83;1.15;;;10.10;68.60;11.60;100918.00;;;;5021757;28;20193;-73
2023/12/30 06:31:34;;;;;;;3.97;0.45;;;10.10;68.60;11.60;100918.00;;;;5032008;28;20705;-73
2023/12/30 06:34:08;;;;;;;3.35;0.80;;;10.10;68.60;11.70;100922.00;;;;5029205;28;20242;-73
2023/12/30 06:36:38;;;;;;;4.10;1.08;;;10.10;68.60;11.70;100933.00;;;;5028141;28;20282;-72
2023/12/30 06:39:15;;;;;;;2.75;0.82;;;10.10;68.60;11.60;100931.00;;;;5029320;28;20534;-73
2023/12/30 06:41:46;;;;;;;2.85;0.45;;;10.10;68.60;11.60;100927.00;;;;5030133;28;20733;-73
2023/12/30 06:44:15;;;;;;;3.45;0.68;;;10.10;68.50;11.70;100942.00;;;;5040197;28;20199;-73
2023/12/30 06:46:43;;;;;;;1.38;0.60;;;10.10;68.40;11.70;100935.00;;;;5052292;28;20564;-73
2023/12/30 06:49:15;;;;;;;4.90;0.60;;;10.10;68.50;11.70;100929.00;;;;5042062;28;20229;-73
2023/12/30 06:51:48;;;;;;;1.83;0.55;;;10.10;68.50;11.70;100935.00;;;;5025073;28;20196;-72
2023/12/30 06:54:18;;;;;;;3.33;1.08;;;10.10;68.40;11.70;100938.00;;;;5026275;28;20192;-74
2023/12/30 06:56:49;;;;;;;4.55;0.70;;;10.10;68.40;11.70;100940.00;;;;5028381;28;20279;-72
2023/12/30 06:59:18;;;;;;;2.03;0.60;;;10.10;68.40;11.70;100941.00;;;;5023374;28;20188;-73
2023/12/30 07:01:46;;;;;;;3.60;1.10;;;10.10;68.30;11.70;100938.00;;;;5025645;28;20219;-73
2023/12/30 07:04:16;;;;;;;2.47;0.82;;;10.00;68.30;11.70;100925.00;;;;5031899;28;20214;-73
2023/12/30 07:06:47;;;;;;;3.22;0.60;;;10.00;68.20;11.60;100933.00;;;;5030046;28;20224;-73
2023/12/30 07:09:18;;;;;;;2.05;0.50;;;10.00;68.30;11.70;100938.00;;;;5029785;28;20613;-73
2023/12/30 07:11:49;;;;;;;1.95;0.70;;;10.00;68.30;11.60;100931.00;;;;5028683;28;20231;-73
2023/12/30 07:14:16;;;;;;;2.88;0.90;;;10.00;68.30;11.60;100932.00;;;;5031228;28;20338;-73
2023/12/30 07:16:49;;;;;;;6.30;1.15;;;10.00;68.20;11.60;100931.00;;;;5027998;28;20668;-73
2023/12/30 07:19:17;;;;;;;2.10;0.73;;;10.00;68.30;11.60;100930.00;;;;5029840;28;20207;-73
2023/12/30 07:21:44;;;;;;;4.70;0.90;;;10.00;68.40;11.60;100931.00;;;;5027322;28;20224;-73
2023/12/30 07:24:11;;;;;;;5.45;1.08;;;10.00;68.40;11.60;100935.00;;;;5025990;28;20188;-73
2023/12/30 07:26:39;;;;;;;2.92;0.60;;;10.00;68.40;11.60;100935.00;;;;5023978;28;20192;-73
2023/12/30 07:29:07;;;;;;;3.20;0.95;;;9.90;68.40;11.60;100936.00;;;;5027795;28;20212;-73
2023/12/30 07:31:34;;;;;;;3.95;0.70;;;9.90;68.50;11.60;100947.00;;;;5025187;28;20524;-73
2023/12/30 07:34:01;;;;;;;2.72;0.80;;;9.90;68.50;11.60;100950.00;;;;5027230;28;20548;-71
2023/12/30 07:36:28;;;;;;;1.88;0.70;;;9.90;68.60;11.60;100956.00;;;;5030239;28;20188;-72
2023/12/30 07:38:55;;;;;;;5.03;1.15;;;9.90;68.60;11.60;100954.00;;;;5031748;28;20193;-72
2023/12/30 07:41:22;;;;;;;5.82;1.20;;;9.90;68.70;11.60;100962.00;;;;5024257;28;20200;-72
2023/12/30 07:43:51;;;;;;;2.88;1.00;;;9.90;68.70;11.60;100968.00;;;;5031284;28;20592;-73
2023/12/30 07:46:18;;;;;;;3.28;0.90;;;9.90;68.70;11.60;100975.00;;;;5030548;28;20200;-74
2023/12/30 07:48:45;;;;;;;5.68;1.10;;;9.90;68.70;11.60;100980.00;;;;5037202;28;20219;-73
2023/12/30 07:51:12;;;;;;;8.55;1.52;;;9.90;68.70;11.60;100973.00;;;;5029068;28;20559;-74
2023/12/30 07:53:39;;;;;;;8.52;1.25;;;9.90;68.60;11.60;100978.00;;;;5034388;28;20197;-73
2023/12/30 07:56:07;;;;;;;2.75;0.88;;;9.90;68.60;11.60;100984.00;;;;5031217;28;20196;-73
2023/12/30 07:58:35;;;;;;;4.68;0.80;;;9.90;68.50;11.60;100985.00;;;;5028746;28;20195;-75
2023/12/30 08:01:03;;;;;;;5.55;1.13;;;9.90;68.60;11.50;100985.00;;;;5025440;28;20200;-75
2023/12/30 08:03:30;;;;;;;5.53;1.13;;;9.90;68.60;11.60;100988.00;;;;5029097;28;20382;-73
2023/12/30 08:05:57;;;;;;;7.70;0.90;;;9.90;68.70;11.50;100992.00;;;;5029404;28;20212;-73
2023/12/30 08:08:24;;;;;;;4.15;1.17;;;9.90;68.70;11.50;100990.00;;;;5035657;28;20192;-73
2023/12/30 08:10:52;;;;;;;5.57;0.90;;;9.90;69.40;11.50;100986.00;;;;5046385;28;20664;-74
2023/12/30 08:13:19;;;;;;;5.03;1.00;;;9.90;68.80;11.50;100993.00;;;;5029942;28;20215;-74
2023/12/30 08:15:46;;;;;;;12.43;1.60;;;9.90;68.90;11.50;100997.00;;;;5029337;28;20212;-73
2023/12/30 08:18:14;;;;;;;3.15;1.02;;;9.90;68.90;11.50;101004.00;;;;5037468;28;20205;-73
2023/12/30 08:20:41;;;;;;;3.53;0.77;;;9.80;68.90;11.50;101004.00;;;;5028691;28;20572;-74
2023/12/30 08:23:08;;;;;;;3.80;0.98;;;9.90;69.00;11.50;100994.00;;;;5031483;28;20220;-73
2023/12/30 08:25:36;;;;;;;3.90;1.23;;;9.90;69.00;11.50;101002.00;;;;5032882;28;20654;-73
2023/12/30 08:28:03;;;;;;;3.85;0.95;;;9.90;69.10;11.50;101007.00;;;;5030478;28;20216;-73
2023/12/30 08:30:30;;;;;;;6.22;1.23;;;9.90;69.10;11.50;101017.00;;;;5025667;28;20678;-73
2023/12/30 08:33:03;;;;;;;3.80;1.05;;;9.90;69.10;11.60;101009.00;;;;5019544;28;20197;-73
2023/12/30 08:35:31;;;;;;;4.90;0.95;;;9.90;69.20;11.60;101011.00;;;;5030787;28;20199;-73
2023/12/30 08:37:58;;;;;;;5.70;1.40;;;9.90;69.20;11.60;101007.00;;;;5031049;28;20203;-73
2023/12/30 08:40:25;;;;;;;3.67;1.10;;;9.90;69.30;11.60;101020.00;;;;5030758;28;20577;-73
2023/12/30 08:42:52;;;;;;;4.88;1.48;;;9.90;69.30;11.60;101021.00;;;;5031223;28;20235;-73
2023/12/30 08:45:19;;;;;;;4.20;0.90;;;9.90;69.40;11.70;101025.00;;;;5032107;28;20266;-73
2023/12/30 08:47:47;;;;;;;4.60;0.80;;;10.00;69.40;11.70;101023.00;;;;5034670;28;20203;-73
2023/12/30 08:50:14;;;;;;;5.43;1.92;;;10.00;69.50;11.70;101022.00;;;;5034194;28;20287;-73
2023/12/30 08:52:43;;;;;;;3.45;1.08;;;10.00;69.50;11.70;101016.00;;;;5034589;28;20814;-73
2023/12/30 08:55:11;;;;;;;3.45;1.30;;;10.00;69.60;11.70;101023.00;;;;5033970;28;20211;-73
2023/12/30 08:57:38;;;;;;;8.82;1.05;;;10.10;69.70;11.80;101031.00;;;;5034183;28;20275;-73
2023/12/30 09:00:09;;;;;;;6.25;1.60;;;10.10;69.70;11.80;101028.00;;;;5035802;28;20218;-72
2023/12/30 09:02:36;;;;;;;3.60;0.70;;;10.10;69.70;11.80;101037.00;;;;5034124;28;20216;-73
2023/12/30 09:05:04;;;;;;;4.25;1.00;;;10.20;69.80;11.90;101020.00;;;;5034026;28;20192;-73
2023/12/30 09:07:32;;;;;;;6.45;1.25;;;10.20;69.90;11.90;101027.00;;;;5034312;28;20322;-73
2023/12/30 09:10:00;;;;;;;5.13;1.30;;;10.20;69.90;12.00;101021.00;;;;5034195;28;20283;-73
2023/12/30 09:12:27;;;;;;;3.38;0.77;;;10.30;70.00;12.00;101026.00;;;;5034047;28;20688;-72
2023/12/30 09:14:54;;;;;;;8.25;1.40;;;10.30;70.00;12.10;101035.00;;;;5033996;28;20283;-73
2023/12/30 09:17:21;;;;;;;2.47;0.80;;;10.40;70.10;12.10;101035.00;;;;5042272;28;20204;-72
2023/12/30 09:19:48;;;;;;;3.33;0.98;;;10.40;70.10;12.20;101029.00;;;;5017953;28;20671;-72
2023/12/30 09:22:16;;;;;;;3.20;1.23;;;10.50;70.10;12.20;101031.00;;;;5034010;28;20204;-72
2023/12/30 09:24:43;;;;;;;2.85;1.00;;;10.50;70.20;12.30;101036.00;;;;5033542;28;20193;-72
2023/12/30 09:27:11;;;;;;;11.55;2.53;;;10.60;70.20;12.30;101039.00;;;;5033601;28;20200;-72
2023/12/30 09:29:38;;;;;;;3.15;0.90;;;10.60;70.20;12.40;101048.00;;;;5033647;28;20201;-72
2023/12/30 09:32:07;;;;;;;6.00;1.10;;;10.70;70.20;12.50;101051.00;;;;5033232;28;20580;-74
2023/12/30 09:34:34;;;;;;;5.95;1.10;;;10.70;70.20;12.60;101054.00;;;;5044512;28;20616;-72
2023/12/30 09:37:01;;;;;;;9.60;0.90;;;10.80;70.20;12.60;101048.00;;;;5045507;28;20192;-72
2023/12/30 09:39:28;;;;;;;3.83;1.15;;;10.90;70.20;12.70;101046.00;;;;5036826;28;20196;-72
2023/12/30 09:41:55;;;;;;;3.97;1.10;;;10.90;70.20;12.80;101049.00;;;;5037220;28;20197;-72
2023/12/30 09:44:25;;;;;;;2.65;0.98;;;11.00;70.20;12.80;101061.00;;;;5033095;28;20247;-72
2023/12/30 09:46:54;;;;;;;3.67;1.00;;;11.10;70.20;12.90;101062.00;;;;5046862;28;20296;-72
2023/12/30 09:49:21;;;;;;;5.78;1.27;;;11.10;70.10;12.90;101065.00;;;;5034758;28;20677;-72
2023/12/30 09:51:48;;;;;;;3.42;1.33;;;11.20;70.20;13.00;101070.00;;;;5033080;28;20204;-72
2023/12/30 09:54:15;;;;;;;4.85;1.33;;;11.20;70.00;13.00;101066.00;;;;5033311;28;20207;-72
2023/12/30 09:56:43;;;;;;;5.75;1.30;;;11.30;70.00;13.10;101058.00;;;;5032225;28;20196;-72
2023/12/30 09:59:10;;;;;;;5.25;1.13;;;11.40;70.00;13.10;101058.00;;;;5032729;28;20192;-72
2023/12/30 10:01:39;;;;;;;4.25;1.40;;;11.40;70.00;13.20;101046.00;;;;5033032;28;20214;-72
2023/12/30 10:04:06;;;;;;;3.22;0.73;;;11.40;69.80;13.20;101046.00;;;;5032602;28;20220;-72
2023/12/30 10:06:35;;;;;;;4.95;1.25;;;11.50;69.80;13.30;101045.00;;;;5033187;28;20228;-73
2023/12/30 10:09:02;;;;;;;5.78;1.15;;;11.50;69.70;13.30;101045.00;;;;5033558;28;20205;-73
2023/12/30 10:11:29;;;;;;;5.75;1.42;;;11.60;69.80;13.40;101057.00;;;;5032963;28;20203;-73
2023/12/30 10:13:56;;;;;;;11.30;1.80;;;11.60;70.40;13.40;101067.00;;;;5032233;28;20703;-72
2023/12/30 10:16:25;;;;;;;4.05;1.70;;;11.70;69.70;13.40;101072.00;;;;5032812;28;20196;-73
2023/12/30 10:18:55;;;;;;;5.15;1.42;;;11.70;69.70;13.50;101071.00;;;;5032250;28;20202;-73
2023/12/30 10:21:22;;;;;;;6.68;1.70;;;11.80;69.70;13.60;101079.00;;;;5032361;28;20207;-73
2023/12/30 10:23:51;;;;;;;3.58;1.30;;;11.80;69.70;13.60;101085.00;;;;5032484;28;20220;-72
2023/12/30 10:26:20;;;;;;;3.45;1.20;;;11.80;69.70;13.70;101073.00;;;;5032855;28;20570;-72
2023/12/30 10:28:47;;;;;;;3.50;1.50;;;11.90;69.70;13.70;101070.00;;;;5032509;28;20219;-72
2023/12/30 10:31:18;;;;;;;4.93;1.52;;;11.90;69.60;13.70;101067.00;;;;5036301;28;20520;-72
2023/12/30 10:33:48;;;;;;;5.70;1.60;;;12.00;69.60;13.80;101064.00;;;;5031488;28;20649;-72
2023/12/30 10:36:18;;;;;;;5.05;1.45;;;12.00;69.50;13.80;101064.00;;;;5032219;28;20204;-73
2023/12/30 10:38:46;;;;;;;4.40;1.50;;;12.10;69.50;13.90;101064.00;;;;5032322;28;20204;-72
2023/12/30 10:41:13;;;;;;;5.50;1.80;;;12.10;69.50;13.90;101063.00;;;;5032537;28;20211;-73
2023/12/30 10:43:40;;;;;;;5.88;1.70;;;12.10;69.40;13.90;101066.00;;;;5018283;28;20216;-73
2023/12/30 10:46:13;;;;;;;6.13;2.35;;;12.20;69.40;13.90;101054.00;;;;5032472;28;20207;-72
2023/12/30 10:48:53;;;;;;;5.55;1.40;;;12.20;69.30;13.90;101052.00;;;;5032321;28;20200;-73